Time;durP1;ratioP1;P1;durP2;ratioP2;P2;SDS_P1;SDS_P2;PMS_P1;PMS_P2;Temp;Humidity;BMP_temperature;BMP_pressure;BME280_temperature;BME280_humidity;BME280_pressure;Samples;Min_cycle;Max_cycle;Signal;HPM_P1;HPM_P2
2021/07/04 00:03:56;;;;;;;488.33;423.13;;;;;;;;;;4955265;29;20091;-76
2021/07/04 00:06:22;;;;;;;486.42;421.48;;;;;;;;;;4936832;29;20031;-77
2021/07/04 00:08:48;;;;;;;489.30;426.38;;;;;;;;;;4934717;29;20028;-76
2021/07/04 00:11:14;;;;;;;490.50;430.42;;;;;;;;;;4934891;29;20066;-75
2021/07/04 00:13:46;;;;;;;492.85;433.08;;;;;;;;;;4938359;29;20031;-76
2021/07/04 00:16:12;;;;;;;493.00;433.88;;;;;;;;;;4938181;29;20042;-76
2021/07/04 00:18:38;;;;;;;489.13;428.75;;;;;;;;;;4938629;29;20027;-76
2021/07/04 00:21:07;;;;;;;485.42;424.88;;;;;;;;;;4925571;29;20107;-76
2021/07/04 00:23:33;;;;;;;486.05;424.73;;;;;;;;;;4934989;29;20034;-77
2021/07/04 00:29:03;;;;;;;488.08;426.20;;;;;;;;;;4955280;28;20066;-78
2021/07/04 00:31:29;;;;;;;484.83;421.23;;;;;;;;;;4937781;29;20494;-78
2021/07/04 00:33:56;;;;;;;488.30;426.55;;;;;;;;;;4938031;29;20479;-78
2021/07/04 00:39:25;;;;;;;485.90;420.90;;;;;;;;;;4937134;29;20063;-78
2021/07/04 00:41:51;;;;;;;486.30;420.77;;;;;;;;;;4939589;28;20023;-75
2021/07/04 00:44:17;;;;;;;487.98;422.80;;;;;;;;;;4957323;28;20023;-75
2021/07/04 00:46:43;;;;;;;488.27;425.50;;;;;;;;;;4952655;28;20684;-77
2021/07/04 00:49:33;;;;;;;485.63;418.60;;;;;;;;;;4937956;29;20027;-77
2021/07/04 00:52:00;;;;;;;488.73;419.15;;;;;;;;;;4932537;29;20051;-77
2021/07/04 00:54:27;;;;;;;487.25;426.02;;;;;;;;;;4949100;29;20130;-76
2021/07/04 00:56:53;;;;;;;490.23;430.05;;;;;;;;;;4937583;29;20024;-76
2021/07/04 00:59:20;;;;;;;488.58;424.95;;;;;;;;;;4954756;29;20127;-76
2021/07/04 01:01:49;;;;;;;487.88;419.02;;;;;;;;;;4949971;29;20041;-76
2021/07/04 01:04:15;;;;;;;489.42;426.48;;;;;;;;;;4945270;29;20020;-76
2021/07/04 01:06:42;;;;;;;489.30;426.70;;;;;;;;;;4950560;29;20027;-76
2021/07/04 01:09:08;;;;;;;491.63;428.17;;;;;;;;;;4936600;29;20613;-77
2021/07/04 01:11:34;;;;;;;485.70;418.25;;;;;;;;;;4927421;29;20035;-76
2021/07/04 01:14:16;;;;;;;488.80;420.35;;;;;;;;;;4940457;29;20605;-78
2021/07/04 01:16:43;;;;;;;500.17;420.98;;;;;;;;;;4926279;29;20034;-77
2021/07/04 01:19:11;;;;;;;488.33;416.58;;;;;;;;;;4937767;29;20122;-76
2021/07/04 01:21:39;;;;;;;490.80;422.27;;;;;;;;;;4937409;29;20039;-76
2021/07/04 01:24:06;;;;;;;489.67;420.10;;;;;;;;;;4937547;29;20019;-76
2021/07/04 01:29:38;;;;;;;495.10;421.55;;;;;;;;;;4955055;29;20058;-76
2021/07/04 01:32:04;;;;;;;495.70;427.50;;;;;;;;;;4937508;29;20035;-76
2021/07/04 01:34:30;;;;;;;496.33;428.23;;;;;;;;;;4938023;29;20027;-77
2021/07/04 01:36:56;;;;;;;499.92;433.45;;;;;;;;;;4936079;29;20041;-77
2021/07/04 01:39:22;;;;;;;499.92;429.88;;;;;;;;;;4945976;29;20035;-79
2021/07/04 01:42:10;;;;;;;494.83;424.92;;;;;;;;;;4939784;29;20106;-77
2021/07/04 01:44:36;;;;;;;496.75;426.02;;;;;;;;;;4938300;29;20027;-76
2021/07/04 01:47:02;;;;;;;497.73;427.10;;;;;;;;;;4928004;29;20032;-77
2021/07/04 01:49:28;;;;;;;497.13;425.25;;;;;;;;;;4922094;29;20053;-77
2021/07/04 01:51:54;;;;;;;497.10;424.58;;;;;;;;;;4937044;29;20055;-77
2021/07/04 01:54:23;;;;;;;497.85;427.52;;;;;;;;;;4922291;29;20479;-76
2021/07/04 01:56:49;;;;;;;495.92;425.88;;;;;;;;;;4937664;29;20042;-77
2021/07/04 01:59:15;;;;;;;493.48;420.17;;;;;;;;;;4924278;29;20032;-76
2021/07/04 02:01:41;;;;;;;497.65;426.08;;;;;;;;;;4927223;29;20712;-77
2021/07/04 02:04:07;;;;;;;499.23;429.80;;;;;;;;;;4940827;29;20054;-77
2021/07/04 02:06:36;;;;;;;500.30;429.90;;;;;;;;;;4940542;29;20639;-75
2021/07/04 02:09:02;;;;;;;504.88;439.83;;;;;;;;;;4940598;29;20129;-76
2021/07/04 02:11:28;;;;;;;498.02;427.67;;;;;;;;;;4939836;29;20067;-76
2021/07/04 02:13:54;;;;;;;498.35;428.10;;;;;;;;;;4940250;29;20102;-76
2021/07/04 02:16:20;;;;;;;500.63;424.67;;;;;;;;;;4944326;29;20122;-78
2021/07/04 02:24:54;;;;;;;506.98;416.98;;;;;;;;;;4949204;29;20534;-77
2021/07/04 02:27:20;;;;;;;501.45;423.98;;;;;;;;;;4939798;29;20023;-78
2021/07/04 02:29:46;;;;;;;500.15;424.02;;;;;;;;;;4942211;29;20019;-79
2021/07/04 02:32:12;;;;;;;500.40;425.98;;;;;;;;;;4961078;29;20325;-78
2021/07/04 02:35:02;;;;;;;502.40;427.98;;;;;;;;;;4928744;29;20054;-78
2021/07/04 02:37:28;;;;;;;497.30;417.40;;;;;;;;;;4937115;29;20042;-78
2021/07/04 02:39:54;;;;;;;502.73;425.60;;;;;;;;;;4940699;29;20074;-77
2021/07/04 02:42:20;;;;;;;500.85;423.27;;;;;;;;;;4931987;29;20123;-79
2021/07/04 02:44:46;;;;;;;502.10;418.58;;;;;;;;;;4944009;29;20034;-79
2021/07/04 02:50:34;;;;;;;499.55;416.48;;;;;;;;;;4958436;29;20445;-78
2021/07/04 02:53:00;;;;;;;501.60;419.02;;;;;;;;;;4941586;29;20479;-80
2021/07/04 02:55:26;;;;;;;504.77;424.10;;;;;;;;;;4935310;29;20035;-76
2021/07/04 02:57:53;;;;;;;503.90;424.80;;;;;;;;;;4920496;29;20035;-80
2021/07/04 03:00:20;;;;;;;502.02;423.05;;;;;;;;;;4933435;29;20051;-78
2021/07/04 03:02:48;;;;;;;504.83;426.20;;;;;;;;;;4945355;29;20035;-77
2021/07/04 03:05:14;;;;;;;503.27;424.60;;;;;;;;;;4938972;28;20035;-78
2021/07/04 03:07:40;;;;;;;504.67;430.65;;;;;;;;;;4938637;29;20391;-77
2021/07/04 03:10:09;;;;;;;504.83;429.52;;;;;;;;;;4931628;29;20027;-76
2021/07/04 03:12:35;;;;;;;502.58;424.23;;;;;;;;;;4931271;29;20024;-79
2021/07/04 03:18:05;;;;;;;504.27;424.05;;;;;;;;;;4952155;29;20034;-78
2021/07/04 03:20:31;;;;;;;506.15;424.40;;;;;;;;;;4974832;28;20073;-77
2021/07/04 03:22:57;;;;;;;503.67;426.83;;;;;;;;;;4946800;29;20024;-77
2021/07/04 03:25:23;;;;;;;506.73;433.77;;;;;;;;;;4936279;29;20015;-78
2021/07/04 03:27:55;;;;;;;503.63;423.60;;;;;;;;;;4939624;29;20819;-79
2021/07/04 03:30:22;;;;;;;504.55;426.10;;;;;;;;;;4936328;29;20380;-78
2021/07/04 03:32:49;;;;;;;502.30;424.17;;;;;;;;;;4939981;29;20030;-77
2021/07/04 03:35:16;;;;;;;505.75;427.77;;;;;;;;;;4939401;29;20023;-76
2021/07/04 03:37:48;;;;;;;505.17;426.58;;;;;;;;;;4938315;29;20024;-77
2021/07/04 03:40:39;;;;;;;505.33;424.52;;;;;;;;;;4925050;29;20031;-77
2021/07/04 03:43:05;;;;;;;504.42;423.42;;;;;;;;;;4920233;29;20036;-77
2021/07/04 03:45:31;;;;;;;505.05;424.30;;;;;;;;;;4952712;29;20066;-76
2021/07/04 03:47:57;;;;;;;503.10;420.70;;;;;;;;;;4956603;29;20023;-77
2021/07/04 03:50:23;;;;;;;505.38;426.13;;;;;;;;;;4938584;29;20058;-78
2021/07/04 03:52:58;;;;;;;508.50;427.58;;;;;;;;;;4939203;29;20090;-77
2021/07/04 03:55:25;;;;;;;506.70;425.98;;;;;;;;;;4938947;29;20028;-77
2021/07/04 03:57:52;;;;;;;504.50;422.15;;;;;;;;;;4939025;29;20561;-77
2021/07/04 04:00:19;;;;;;;506.30;424.77;;;;;;;;;;4954661;29;20027;-77
2021/07/04 04:02:45;;;;;;;507.35;426.95;;;;;;;;;;4938811;29;20542;-77
2021/07/04 04:05:29;;;;;;;505.85;422.75;;;;;;;;;;4938020;29;20024;-77
2021/07/04 04:07:55;;;;;;;507.33;426.65;;;;;;;;;;4956007;29;20027;-78
2021/07/04 04:10:21;;;;;;;512.38;433.80;;;;;;;;;;4933135;29;20023;-78
2021/07/04 04:12:47;;;;;;;507.48;426.80;;;;;;;;;;4938813;29;20483;-78
2021/07/04 04:15:14;;;;;;;511.75;435.33;;;;;;;;;;4941050;29;20034;-78
2021/07/04 04:17:41;;;;;;;513.45;436.20;;;;;;;;;;4938342;29;20031;-77
2021/07/04 04:20:08;;;;;;;515.35;442.77;;;;;;;;;;4937839;29;20027;-77
2021/07/04 04:22:34;;;;;;;517.55;442.00;;;;;;;;;;4935958;29;20062;-80
2021/07/04 04:25:00;;;;;;;517.80;443.33;;;;;;;;;;4930136;29;20032;-77
2021/07/04 04:27:26;;;;;;;524.65;443.05;;;;;;;;;;4933938;29;20546;-79
2021/07/04 04:30:17;;;;;;;517.28;437.60;;;;;;;;;;4933698;29;20451;-77
2021/07/04 04:32:43;;;;;;;518.67;435.05;;;;;;;;;;4938305;29;20023;-78
2021/07/04 04:35:09;;;;;;;517.17;440.33;;;;;;;;;;4925617;29;20079;-77
2021/07/04 04:37:36;;;;;;;516.67;436.23;;;;;;;;;;4934167;29;20023;-77
2021/07/04 04:40:02;;;;;;;513.15;432.33;;;;;;;;;;4924872;29;20067;-77
2021/07/04 04:42:54;;;;;;;515.70;440.00;;;;;;;;;;4938095;29;20121;-76
2021/07/04 04:45:20;;;;;;;514.92;433.98;;;;;;;;;;4935596;29;20035;-77
2021/07/04 04:47:46;;;;;;;514.83;436.13;;;;;;;;;;4955156;29;20065;-77
2021/07/04 04:50:12;;;;;;;520.63;444.30;;;;;;;;;;4951326;29;20035;-78
2021/07/04 04:52:38;;;;;;;517.38;442.92;;;;;;;;;;4925655;29;20043;-77
2021/07/04 04:58:09;;;;;;;515.88;431.83;;;;;;;;;;4936134;29;20196;-77
2021/07/04 05:00:35;;;;;;;516.72;441.88;;;;;;;;;;4918568;29;20036;-77
2021/07/04 05:03:05;;;;;;;515.30;436.25;;;;;;;;;;4954191;29;20035;-76
2021/07/04 05:05:32;;;;;;;515.72;441.80;;;;;;;;;;4954858;29;20019;-77
2021/07/04 05:11:29;;;;;;;521.22;446.90;;;;;;;;;;4949311;29;20026;-77
2021/07/04 05:13:55;;;;;;;519.85;443.42;;;;;;;;;;4937322;29;20035;-76
2021/07/04 05:16:21;;;;;;;524.42;450.67;;;;;;;;;;4953319;28;20028;-77
2021/07/04 05:18:47;;;;;;;526.30;448.02;;;;;;;;;;4931544;29;20038;-77
2021/07/04 05:21:13;;;;;;;514.80;445.00;;;;;;;;;;4942151;29;20039;-78
2021/07/04 05:23:42;;;;;;;505.90;435.00;;;;;;;;;;4954672;29;20037;-77
2021/07/04 05:26:08;;;;;;;500.25;428.30;;;;;;;;;;4937286;29;20035;-77
2021/07/04 05:28:34;;;;;;;500.10;428.35;;;;;;;;;;4926325;29;20071;-77
2021/07/04 05:31:00;;;;;;;502.50;431.92;;;;;;;;;;4936623;29;20118;-78
2021/07/04 05:33:26;;;;;;;502.75;436.65;;;;;;;;;;4940049;29;20034;-76
2021/07/04 05:36:17;;;;;;;500.92;435.70;;;;;;;;;;4935513;29;20692;-76
2021/07/04 05:38:43;;;;;;;497.85;426.65;;;;;;;;;;4945819;29;20114;-77
2021/07/04 05:41:10;;;;;;;496.85;428.30;;;;;;;;;;4935770;29;20023;-78
2021/07/04 05:43:37;;;;;;;499.50;427.83;;;;;;;;;;4937035;29;20031;-76
2021/07/04 05:46:03;;;;;;;496.83;425.52;;;;;;;;;;4936665;29;20490;-77
2021/07/04 05:48:34;;;;;;;498.42;427.85;;;;;;;;;;4944217;29;20106;-75
2021/07/04 05:51:00;;;;;;;496.90;423.88;;;;;;;;;;4941618;29;20050;-76
2021/07/04 05:53:26;;;;;;;497.58;430.23;;;;;;;;;;4930317;29;20032;-76
2021/07/04 05:55:52;;;;;;;496.15;425.67;;;;;;;;;;4953233;29;20086;-76
2021/07/04 05:58:19;;;;;;;497.13;428.20;;;;;;;;;;4933287;29;20039;-76
2021/07/04 06:04:22;;;;;;;497.95;423.38;;;;;;;;;;4953868;29;20514;-76
2021/07/04 06:06:48;;;;;;;497.33;423.15;;;;;;;;;;4939365;29;20059;-75
2021/07/04 06:09:14;;;;;;;494.25;420.23;;;;;;;;;;4936038;29;20073;-76
2021/07/04 06:11:40;;;;;;;502.98;434.98;;;;;;;;;;4936016;29;20028;-75
2021/07/04 06:14:06;;;;;;;507.05;442.30;;;;;;;;;;4935645;29;20031;-75
2021/07/04 06:16:34;;;;;;;503.05;432.75;;;;;;;;;;4937355;29;20034;-76
2021/07/04 06:19:00;;;;;;;507.33;442.63;;;;;;;;;;4936946;29;20042;-76
2021/07/04 06:21:26;;;;;;;503.95;441.80;;;;;;;;;;4936019;29;20035;-76
2021/07/04 06:23:52;;;;;;;508.40;446.08;;;;;;;;;;4936594;29;20031;-75
2021/07/04 06:26:18;;;;;;;510.35;450.60;;;;;;;;;;4954114;29;20106;-76
2021/07/04 06:28:50;;;;;;;510.30;452.70;;;;;;;;;;4954983;28;20047;-74
2021/07/04 06:31:16;;;;;;;506.48;445.90;;;;;;;;;;4950085;29;20357;-74
2021/07/04 06:33:42;;;;;;;508.33;447.65;;;;;;;;;;4931734;29;20111;-75
2021/07/04 06:36:08;;;;;;;516.65;450.75;;;;;;;;;;4940324;29;20066;-76
2021/07/04 06:38:34;;;;;;;513.90;455.55;;;;;;;;;;4936483;29;20043;-75
2021/07/04 06:41:06;;;;;;;516.55;459.02;;;;;;;;;;4938751;29;20058;-76
2021/07/04 06:43:32;;;;;;;501.08;443.70;;;;;;;;;;4939944;29;20035;-76
2021/07/04 06:45:58;;;;;;;503.58;445.63;;;;;;;;;;4956856;29;20050;-76
2021/07/04 06:48:24;;;;;;;515.25;457.33;;;;;;;;;;4937654;29;20024;-76
2021/07/04 06:50:50;;;;;;;511.15;454.52;;;;;;;;;;4957124;29;20074;-76
2021/07/04 06:56:23;;;;;;;515.90;459.10;;;;;;;;;;4957585;29;20090;-77
2021/07/04 06:58:50;;;;;;;518.65;461.40;;;;;;;;;;4936335;29;20035;-76
2021/07/04 07:01:16;;;;;;;528.00;470.77;;;;;;;;;;4939682;29;20114;-77
2021/07/04 07:03:42;;;;;;;516.75;459.98;;;;;;;;;;4925597;29;20124;-77
2021/07/04 07:06:08;;;;;;;520.45;463.50;;;;;;;;;;4937938;29;20492;-78
2021/07/04 07:11:38;;;;;;;517.80;461.15;;;;;;;;;;4938937;29;20035;-78
2021/07/04 07:14:04;;;;;;;527.40;470.45;;;;;;;;;;4936356;29;20023;-77
2021/07/04 07:16:30;;;;;;;529.63;471.77;;;;;;;;;;4946688;29;20075;-77
2021/07/04 07:18:56;;;;;;;533.00;475.27;;;;;;;;;;4939420;29;20085;-77
2021/07/04 07:21:41;;;;;;;531.10;473.88;;;;;;;;;;4936452;29;20049;-77
2021/07/04 07:24:07;;;;;;;535.80;478.13;;;;;;;;;;4942920;29;20114;-78
2021/07/04 07:26:34;;;;;;;540.63;482.48;;;;;;;;;;4955657;29;20098;-77
2021/07/04 07:29:00;;;;;;;532.88;475.38;;;;;;;;;;4944777;29;20042;-77
2021/07/04 07:31:26;;;;;;;532.75;475.00;;;;;;;;;;4939278;29;20027;-77
2021/07/04 07:33:55;;;;;;;537.78;479.90;;;;;;;;;;4943327;28;20026;-77
2021/07/04 07:36:20;;;;;;;530.25;472.45;;;;;;;;;;4963483;28;20031;-76
2021/07/04 07:38:46;;;;;;;535.17;477.13;;;;;;;;;;4931372;29;20038;-77
2021/07/04 07:41:12;;;;;;;540.53;481.40;;;;;;;;;;4954557;29;20038;-76
2021/07/04 07:43:38;;;;;;;541.83;482.40;;;;;;;;;;4938828;29;20118;-76
2021/07/04 07:46:23;;;;;;;542.83;483.92;;;;;;;;;;4935521;29;20079;-76
2021/07/04 07:48:49;;;;;;;532.72;474.13;;;;;;;;;;4945634;29;20027;-77
2021/07/04 07:51:15;;;;;;;554.00;493.23;;;;;;;;;;4939005;29;20109;-75
2021/07/04 07:53:41;;;;;;;577.25;514.75;;;;;;;;;;4942651;29;20031;-77
2021/07/04 07:56:07;;;;;;;548.00;488.65;;;;;;;;;;4938481;29;20030;-76
2021/07/04 07:58:35;;;;;;;543.67;484.55;;;;;;;;;;4936284;29;20031;-76
2021/07/04 08:01:01;;;;;;;539.08;480.50;;;;;;;;;;4938244;29;20502;-75
2021/07/04 08:03:27;;;;;;;539.33;480.65;;;;;;;;;;4929148;29;20147;-76
2021/07/04 08:05:53;;;;;;;538.58;480.00;;;;;;;;;;4953800;29;20031;-76
2021/07/04 08:08:19;;;;;;;538.65;480.17;;;;;;;;;;4937479;29;20037;-79
2021/07/04 08:10:46;;;;;;;537.75;479.60;;;;;;;;;;4937436;29;20144;-78
2021/07/04 08:13:12;;;;;;;531.33;473.55;;;;;;;;;;4936001;29;20535;-76
2021/07/04 08:15:38;;;;;;;538.72;480.70;;;;;;;;;;4955218;29;20070;-76
2021/07/04 08:18:04;;;;;;;534.78;476.65;;;;;;;;;;4954759;29;20100;-76
2021/07/04 08:20:32;;;;;;;528.03;470.25;;;;;;;;;;4946103;29;20027;-77
2021/07/04 08:26:25;;;;;;;518.70;461.38;;;;;;;;;;4950167;29;20034;-77
2021/07/04 08:28:52;;;;;;;519.00;461.17;;;;;;;;;;4937520;29;20082;-77
2021/07/04 08:31:18;;;;;;;533.88;475.70;;;;;;;;;;4936200;29;20028;-77
2021/07/04 08:33:44;;;;;;;532.05;474.52;;;;;;;;;;4953992;29;20038;-77
2021/07/04 08:36:10;;;;;;;532.95;475.60;;;;;;;;;;4952402;29;20041;-77
2021/07/04 08:38:39;;;;;;;541.53;484.00;;;;;;;;;;4937630;29;20023;-77
2021/07/04 08:41:05;;;;;;;534.60;476.90;;;;;;;;;;4947873;29;20082;-77
2021/07/04 08:43:32;;;;;;;534.08;476.63;;;;;;;;;;4937265;29;20691;-77
2021/07/04 08:45:58;;;;;;;534.05;476.58;;;;;;;;;;4954792;29;20023;-78
2021/07/04 08:48:25;;;;;;;537.60;479.77;;;;;;;;;;4954809;29;20035;-78
2021/07/04 08:50:51;;;;;;;532.80;475.40;;;;;;;;;;4933236;28;20392;-79
2021/07/04 08:53:17;;;;;;;541.33;483.35;;;;;;;;;;4945050;29;20035;-80
2021/07/04 08:55:44;;;;;;;546.22;488.05;;;;;;;;;;4936418;29;20086;-78
2021/07/04 08:58:10;;;;;;;547.67;489.52;;;;;;;;;;4936567;29;20065;-76
2021/07/04 09:00:36;;;;;;;551.92;493.58;;;;;;;;;;4934608;29;20109;-79
2021/07/04 09:03:26;;;;;;;551.83;493.80;;;;;;;;;;4945203;29;20027;-78
2021/07/04 09:05:52;;;;;;;;;;;;;;;;;;4954800;29;20090;-77
2021/07/04 09:08:21;;;;;;;547.15;489.10;;;;;;;;;;4944682;29;19997;-78
2021/07/04 09:11:07;;;;;;;555.23;497.10;;;;;;;;;;4947801;29;20034;-78
2021/07/04 09:13:49;;;;;;;559.20;501.05;;;;;;;;;;4924335;29;20036;-76
2021/07/04 09:16:17;;;;;;;556.58;498.58;;;;;;;;;;4950972;29;20035;-78
2021/07/04 09:18:44;;;;;;;568.97;510.60;;;;;;;;;;4933910;29;20035;-78
2021/07/04 09:21:24;;;;;;;575.00;516.67;;;;;;;;;;4930991;29;20040;-77
2021/07/04 09:23:56;;;;;;;571.72;513.13;;;;;;;;;;4943439;29;20027;-77
2021/07/04 09:26:38;;;;;;;584.33;525.42;;;;;;;;;;4954236;29;20031;-78
2021/07/04 09:29:04;;;;;;;587.92;528.63;;;;;;;;;;4944483;29;20023;-79
2021/07/04 09:31:30;;;;;;;597.47;537.35;;;;;;;;;;4954539;29;20700;-79
2021/07/04 09:34:18;;;;;;;608.53;548.88;;;;;;;;;;4938724;29;20035;-78
2021/07/04 09:36:44;;;;;;;621.67;562.25;;;;;;;;;;4937437;28;20023;-78
2021/07/04 09:39:20;;;;;;;641.80;581.35;;;;;;;;;;4940861;29;20122;-82
2021/07/04 09:42:02;;;;;;;648.85;589.08;;;;;;;;;;4942930;29;20085;-79
2021/07/04 09:44:50;;;;;;;689.25;627.63;;;;;;;;;;4934141;29;20079;-79
2021/07/04 09:47:20;;;;;;;690.25;628.78;;;;;;;;;;4939333;29;20024;-80
2021/07/04 09:49:47;;;;;;;692.17;631.60;;;;;;;;;;4935008;29;20041;-82
2021/07/04 09:52:20;;;;;;;677.30;616.90;;;;;;;;;;4925378;29;20127;-80
2021/07/04 09:55:04;;;;;;;666.15;606.45;;;;;;;;;;4952368;29;20023;-79
2021/07/04 09:57:50;;;;;;;640.22;581.45;;;;;;;;;;4923238;29;20036;-80
2021/07/04 10:00:16;;;;;;;638.42;579.22;;;;;;;;;;4949862;29;20082;-80
2021/07/04 10:02:43;;;;;;;620.33;561.72;;;;;;;;;;4955579;28;20387;-79
2021/07/04 10:05:31;;;;;;;628.33;569.22;;;;;;;;;;4939325;29;20038;-81
2021/07/04 10:07:57;;;;;;;626.85;568.28;;;;;;;;;;4940813;29;20024;-81
2021/07/04 10:10:23;;;;;;;647.78;588.67;;;;;;;;;;4931268;29;20028;-82
2021/07/04 10:12:49;;;;;;;678.95;619.05;;;;;;;;;;4935743;29;20094;-81
2021/07/04 10:15:15;;;;;;;697.80;637.30;;;;;;;;;;4940726;29;20030;-82
2021/07/04 10:18:06;;;;;;;726.60;664.78;;;;;;;;;;4940792;29;20543;-81
2021/07/04 10:20:32;;;;;;;709.88;649.38;;;;;;;;;;4949593;29;20042;-80
2021/07/04 10:22:58;;;;;;;723.75;662.38;;;;;;;;;;4946566;29;20130;-82
2021/07/04 10:25:25;;;;;;;715.90;655.13;;;;;;;;;;4942220;29;20031;-82
2021/07/04 10:27:51;;;;;;;747.95;685.38;;;;;;;;;;4940344;29;20078;-82
2021/07/04 10:30:21;;;;;;;777.05;713.72;;;;;;;;;;4940652;29;20053;-85
2021/07/04 10:33:07;;;;;;;789.88;726.13;;;;;;;;;;4938114;29;20557;-83
2021/07/04 10:35:34;;;;;;;768.50;706.67;;;;;;;;;;4940396;29;20027;-82
2021/07/04 10:38:14;;;;;;;777.92;715.97;;;;;;;;;;4940344;29;20023;-85
2021/07/04 10:43:50;;;;;;;810.75;748.08;;;;;;;;;;4950905;29;20094;-83
2021/07/04 10:46:17;;;;;;;1136.20;999.90;;;;;;;;;;4930009;29;20028;-83
2021/07/04 10:48:56;;;;;;;802.83;741.08;;;;;;;;;;4931959;29;20529;-82
2021/07/04 10:52:00;;;;;;;815.25;753.00;;;;;;;;;;4931126;29;20051;-85
2021/07/04 10:54:45;;;;;;;803.03;740.92;;;;;;;;;;4852922;29;20048;-83
2021/07/04 10:57:11;;;;;;;816.08;752.42;;;;;;;;;;4839793;29;20136;-83
2021/07/04 11:00:12;;;;;;;810.88;746.60;;;;;;;;;;4908557;29;20043;-84
2021/07/04 11:03:00;;;;;;;804.15;739.08;;;;;;;;;;4951172;29;20038;-84
2021/07/04 11:05:34;;;;;;;743.80;681.35;;;;;;;;;;4929582;29;20023;-84
2021/07/04 11:08:00;;;;;;;769.22;704.72;;;;;;;;;;4930347;29;20066;-84
2021/07/04 11:10:26;;;;;;;753.05;689.22;;;;;;;;;;4929122;28;21615;-84
2021/07/04 11:12:57;;;;;;;743.22;679.60;;;;;;;;;;4941500;29;20488;-84
2021/07/04 11:15:29;;;;;;;742.35;678.33;;;;;;;;;;4932899;29;20031;-85
2021/07/04 11:17:59;;;;;;;758.05;693.40;;;;;;;;;;4936201;29;20118;-86
2021/07/04 11:20:25;;;;;;;750.03;685.92;;;;;;;;;;4939844;29;20027;-83
2021/07/04 11:22:57;;;;;;;779.55;713.55;;;;;;;;;;4939320;29;20039;-83
2021/07/04 11:25:24;;;;;;;824.53;755.72;;;;;;;;;;4930834;29;20024;-85
2021/07/04 11:28:29;;;;;;;788.85;722.67;;;;;;;;;;4925010;29;20035;-83
2021/07/04 11:31:09;;;;;;;826.90;758.22;;;;;;;;;;4860414;29;20026;-85
2021/07/04 11:33:37;;;;;;;1195.80;999.90;;;;;;;;;;4853723;29;20026;-84
2021/07/04 11:36:10;;;;;;;729.90;668.17;;;;;;;;;;4894620;29;20512;-84
2021/07/04 11:39:10;;;;;;;728.70;667.13;;;;;;;;;;4928465;29;20038;-85
2021/07/04 11:41:49;;;;;;;719.75;658.85;;;;;;;;;;4938272;29;20138;-87
2021/07/04 11:44:16;;;;;;;719.00;658.38;;;;;;;;;;4936013;29;20408;-85
2021/07/04 11:46:43;;;;;;;724.70;663.78;;;;;;;;;;4952507;29;20030;-87
2021/07/04 11:52:19;;;;;;;716.03;655.88;;;;;;;;;;4937350;29;20095;-80
2021/07/04 11:54:45;;;;;;;719.55;659.35;;;;;;;;;;4954447;28;20027;-84
2021/07/04 12:00:01;;;;;;;694.80;635.15;;;;;;;;;;4945775;29;20082;-88
2021/07/04 12:02:33;;;;;;;691.38;631.80;;;;;;;;;;4938601;29;20036;-87
2021/07/04 12:04:59;;;;;;;693.85;634.25;;;;;;;;;;4933862;29;20030;-84
2021/07/04 12:07:26;;;;;;;689.25;629.72;;;;;;;;;;4939598;29;20074;-86
2021/07/04 12:09:52;;;;;;;692.70;633.15;;;;;;;;;;4952007;29;20030;-88
2021/07/04 12:15:37;;;;;;;687.28;628.13;;;;;;;;;;4950128;29;20030;-85
2021/07/04 12:18:12;;;;;;;707.45;647.58;;;;;;;;;;4954436;29;20059;-85
2021/07/04 12:20:38;;;;;;;714.08;654.28;;;;;;;;;;4935331;29;20059;-86
2021/07/04 12:23:06;;;;;;;733.58;673.55;;;;;;;;;;4927347;29;20472;-85
2021/07/04 12:25:33;;;;;;;750.45;690.17;;;;;;;;;;4955319;28;20032;-86
2021/07/04 12:28:07;;;;;;;761.13;700.42;;;;;;;;;;4947150;29;20381;-87
2021/07/04 12:30:34;;;;;;;764.25;703.75;;;;;;;;;;4939298;29;20023;-87
2021/07/04 12:33:04;;;;;;;799.03;737.08;;;;;;;;;;4932919;29;20031;-87
2021/07/04 12:35:30;;;;;;;801.33;738.95;;;;;;;;;;4938490;29;20035;-86
2021/07/04 12:38:15;;;;;;;798.30;735.65;;;;;;;;;;4938378;29;20030;-87
2021/07/04 12:40:50;;;;;;;803.08;739.38;;;;;;;;;;4936393;29;20031;-82
2021/07/04 12:43:17;;;;;;;803.50;739.13;;;;;;;;;;4938128;29;20512;-82
2021/07/04 12:45:54;;;;;;;771.15;708.25;;;;;;;;;;4934295;29;20047;-83
2021/07/04 12:51:24;;;;;;;721.63;660.30;;;;;;;;;;4946431;28;20043;-82
2021/07/04 12:53:50;;;;;;;705.78;644.85;;;;;;;;;;4937824;29;20093;-81
2021/07/04 12:56:19;;;;;;;700.42;639.42;;;;;;;;;;4937799;29;20023;-81
2021/07/04 12:58:52;;;;;;;701.40;639.72;;;;;;;;;;4953400;29;20392;-81
2021/07/04 13:01:37;;;;;;;687.05;625.72;;;;;;;;;;4936013;29;20118;-81
2021/07/04 13:04:03;;;;;;;686.83;625.42;;;;;;;;;;4937657;29;20042;-82
2021/07/04 13:06:50;;;;;;;681.47;620.15;;;;;;;;;;4937858;29;20130;-81
2021/07/04 13:09:19;;;;;;;688.70;626.85;;;;;;;;;;4933918;29;20111;-83
2021/07/04 13:12:11;;;;;;;682.80;621.57;;;;;;;;;;4933875;29;20073;-81
2021/07/04 13:14:46;;;;;;;661.00;600.80;;;;;;;;;;4935521;29;20311;-83
2021/07/04 13:17:23;;;;;;;664.15;603.83;;;;;;;;;;4941503;29;20063;-83
2021/07/04 13:19:50;;;;;;;660.75;600.47;;;;;;;;;;4950460;29;20074;-83
2021/07/04 13:22:39;;;;;;;664.08;603.47;;;;;;;;;;4950607;29;20024;-82
2021/07/04 13:25:17;;;;;;;652.28;591.90;;;;;;;;;;4951477;29;20051;-82
2021/07/04 13:27:48;;;;;;;657.28;596.42;;;;;;;;;;4954481;29;20543;-81
2021/07/04 13:30:16;;;;;;;658.42;597.25;;;;;;;;;;4937053;29;20074;-81
2021/07/04 13:33:01;;;;;;;660.67;599.38;;;;;;;;;;4935347;29;20106;-80
2021/07/04 13:35:29;;;;;;;656.30;594.78;;;;;;;;;;4927322;29;20023;-81
2021/07/04 13:38:06;;;;;;;652.50;591.38;;;;;;;;;;4933216;29;20039;-83
2021/07/04 13:40:32;;;;;;;645.58;584.35;;;;;;;;;;4928159;29;20027;-81
2021/07/04 13:43:18;;;;;;;637.60;576.45;;;;;;;;;;4949305;28;20091;-81
2021/07/04 13:45:53;;;;;;;619.60;558.88;;;;;;;;;;4929068;29;20491;-77
2021/07/04 13:48:31;;;;;;;600.70;540.38;;;;;;;;;;4930814;29;20105;-80
2021/07/04 13:50:59;;;;;;;589.22;529.30;;;;;;;;;;4954463;29;20359;-75
2021/07/04 13:57:06;;;;;;;553.60;494.05;;;;;;;;;;4954257;29;20638;-82
2021/07/04 13:59:33;;;;;;;554.28;494.20;;;;;;;;;;4939597;29;20051;-86
2021/07/04 14:01:59;;;;;;;565.83;504.73;;;;;;;;;;4951502;29;20027;-77
2021/07/04 14:04:24;;;;;;;564.58;503.25;;;;;;;;;;4937118;29;20030;-84
2021/07/04 14:06:51;;;;;;;563.10;502.00;;;;;;;;;;4933797;29;20432;-82
2021/07/04 14:09:21;;;;;;;561.47;500.38;;;;;;;;;;4934302;29;20539;-81
2021/07/04 14:11:47;;;;;;;562.30;501.15;;;;;;;;;;4943163;29;20047;-81
2021/07/04 14:14:13;;;;;;;559.03;497.95;;;;;;;;;;4928902;29;20042;-78
2021/07/04 14:16:39;;;;;;;570.53;508.50;;;;;;;;;;4936438;29;20178;-75
2021/07/04 14:19:05;;;;;;;550.47;488.50;;;;;;;;;;4929013;29;20063;-78
2021/07/04 14:21:32;;;;;;;548.55;487.52;;;;;;;;;;4936578;29;20058;-76
2021/07/04 14:23:58;;;;;;;549.47;488.65;;;;;;;;;;4937051;29;20067;-76
2021/07/04 14:26:24;;;;;;;550.88;490.25;;;;;;;;;;4954171;29;20027;-78
2021/07/04 14:28:50;;;;;;;544.83;481.75;;;;;;;;;;4933875;29;20096;-78
2021/07/04 14:31:41;;;;;;;548.75;486.92;;;;;;;;;;4936265;29;20026;-77
2021/07/04 14:34:07;;;;;;;544.22;482.88;;;;;;;;;;4953972;28;20023;-74
2021/07/04 14:36:36;;;;;;;542.63;481.50;;;;;;;;;;4932725;29;20510;-79
2021/07/04 14:39:03;;;;;;;552.17;491.33;;;;;;;;;;4936847;29;20023;-77
2021/07/04 14:41:29;;;;;;;550.90;490.08;;;;;;;;;;4952601;29;20420;-78
2021/07/04 14:44:12;;;;;;;550.10;489.90;;;;;;;;;;4934912;28;20175;-78
2021/07/04 14:46:40;;;;;;;543.78;483.73;;;;;;;;;;4935042;29;20034;-82
2021/07/04 14:49:07;;;;;;;539.90;480.35;;;;;;;;;;4929225;29;20074;-78
2021/07/04 14:51:38;;;;;;;540.65;481.08;;;;;;;;;;4956277;29;20127;-79
2021/07/04 14:54:06;;;;;;;545.88;485.83;;;;;;;;;;4956794;28;20034;-81
2021/07/04 14:56:41;;;;;;;539.50;479.98;;;;;;;;;;4954958;29;20087;-79
2021/07/04 14:59:07;;;;;;;543.97;484.15;;;;;;;;;;4957226;29;20057;-82
2021/07/04 15:01:33;;;;;;;539.13;478.00;;;;;;;;;;4940150;29;20063;-79
2021/07/04 15:03:59;;;;;;;544.58;484.42;;;;;;;;;;4936742;29;20110;-77
2021/07/04 15:06:25;;;;;;;544.78;479.88;;;;;;;;;;4955722;29;20652;-80
2021/07/04 15:09:16;;;;;;;544.65;483.85;;;;;;;;;;4956423;28;20031;-80
2021/07/04 15:11:46;;;;;;;540.20;476.05;;;;;;;;;;4952954;28;20490;-81